Farmington, UT (84025)

10:55 PM MST on February 06, 2016 (GMT -0700)
APRSWXNET | | Change Station
CLOSE
Current Station
Personal Weather Station
Location: Kaysville, UT
Elevation: 4762 ft
Nearby Weather Stations

Elev 4762 ft 41.05 °N, 111.91 °W | Updated 24 minutes ago

Partly Cloudy
Partly Cloudy
29 °F
Feels Like 29 °F
N
0
Wind Variable Wind from West
Gusts 1.0 mph

Today
High -- | Low -- °F
--% Chance of Precip.
Yesterday
High -- | Low -- °F
Precip. -- in
Pressure 30.54 in
Visibility 10.0 miles
Clouds Mostly Cloudy 14000 ft
Windchill 29 °F
Dew Point 23 °F
Humidity 78%
Rainfall in
Snow Depth Not available.
7:33 AM 5:50 PM
Waning Crescent, 2% visible
METAR KHIF 070458Z AUTO 11006KT 10SM BKN140 M02/M10 A3046 RMK AO2 SLP342 T10241100
Pressure 30.54 in
Visibility 10.0 miles
Clouds Mostly Cloudy 14000 ft
Windchill 29 °F
Dew Point 23 °F
Humidity 78%
Rainfall in
Snow Depth Not available.
7:33 AM 5:50 PM
Waning Crescent, 2% visible
METAR KHIF 070458Z AUTO 11006KT 10SM BKN140 M02/M10 A3046 RMK AO2 SLP342 T10241100

10-Day Weather Forecast

Almanac

Astronomy

Feb. 06, 2016 Rise Set
Actual Time
Civil Twilight
Nautical Twilight
Astronomical Twilight
Moon
Length of Visible Light
Length of Day
Tomorrow will be .
, % of the Moon is Illuminated

Today's Extremes

State Highs State Lows

Community

WunderPhotos

Upload Photos

1,891,167 photos uploaded!

WunderBlog® & News

Nearby

Air Quality

  Air Quality AQ Index Pollutant
Not available.

Snow Depth

Station Depth Elevation

Earthquake Activity

City Distance Mag. Time & Date
Minimum magnitude displayed is 2.5.

Coastal Water Temperatures

Place Temperature

Stations

Nearby Weather Stations

Station Location Temp. Windchill Dew Point Humidity Wind Precip. Elev Updated Type
                   

Watches & Warnings

There are currently no watches in effect.